createdAt,value
2023-01-11T00:01:14.528Z,99417.03
2023-01-11T00:03:43.315Z,99416.53
2023-01-11T00:06:18.838Z,99415.03
2023-01-11T00:08:49.735Z,99425.72
2023-01-11T00:11:17.329Z,99414.50
2023-01-11T00:13:45.458Z,99417.88
2023-01-11T00:16:13.795Z,99420.72
2023-01-11T00:18:42.172Z,99417.19
2023-01-11T00:21:11.912Z,99424.72
2023-01-11T00:23:57.727Z,99423.22
2023-01-11T00:26:28.512Z,99406.66
2023-01-11T00:28:56.792Z,99421.69
2023-01-11T00:31:26.033Z,99421.69
2023-01-11T00:33:53.259Z,99416.69
2023-01-11T00:36:20.985Z,99415.03
2023-01-11T00:38:51.591Z,99431.56
2023-01-11T00:41:42.035Z,99433.09
2023-01-11T00:44:30.138Z,99433.72
2023-01-11T00:47:16.997Z,99433.38
2023-01-11T00:49:44.562Z,99430.56
2023-01-11T00:52:12.181Z,99430.41
2023-01-11T00:54:40.737Z,99429.56
2023-01-11T00:57:08.899Z,99439.09
2023-01-11T00:59:37.570Z,99429.72
2023-01-11T01:02:05.498Z,99443.78
2023-01-11T01:04:32.929Z,99431.06
2023-01-11T01:07:00.881Z,99443.44
2023-01-11T01:09:31.210Z,99441.09
2023-01-11T01:12:02.247Z,99449.94
2023-01-11T01:14:31.105Z,99436.75
2023-01-11T01:17:02.474Z,99450.28
2023-01-11T01:19:31.055Z,99443.44
2023-01-11T01:21:59.845Z,99455.47
2023-01-11T01:24:31.085Z,99449.44
2023-01-11T01:26:59.096Z,99450.63
2023-01-11T01:29:28.429Z,99457.78
2023-01-11T01:31:55.919Z,99457.78
2023-01-11T01:34:23.821Z,99457.66
2023-01-11T01:36:51.309Z,99449.78
2023-01-11T01:39:20.464Z,99434.06
2023-01-11T01:41:50.445Z,99451.97
2023-01-11T01:44:57.981Z,99461.78
2023-01-11T01:47:37.958Z,99460.16
2023-01-11T01:50:12.163Z,99458.13
2023-01-11T01:52:42.085Z,99452.78
2023-01-11T01:55:13.395Z,99458.47
2023-01-11T01:57:44.212Z,99475.00
2023-01-11T02:00:13.231Z,99471.00
2023-01-11T02:02:44.040Z,99477.03
2023-01-11T02:05:13.215Z,99470.50
2023-01-11T02:07:43.408Z,99468.00
2023-01-11T02:10:17.449Z,99468.00
2023-01-11T02:12:55.899Z,99470.16
2023-01-11T02:15:24.047Z,99477.69
2023-01-11T02:17:51.838Z,99481.69
2023-01-11T02:20:34.754Z,99484.34
2023-01-11T02:23:20.627Z,99485.53
2023-01-11T02:25:59.845Z,99486.38
2023-01-11T02:28:39.088Z,99485.88
2023-01-11T02:31:34.249Z,99483.19
2023-01-11T02:34:31.147Z,99494.56
2023-01-11T02:37:04.810Z,99466.16
2023-01-11T02:39:40.109Z,99487.53
2023-01-11T02:42:41.043Z,99492.56
2023-01-11T02:45:15.207Z,99487.19
2023-01-11T02:48:00.617Z,99492.19
2023-01-11T02:51:08.483Z,99497.91
2023-01-11T02:53:49.620Z,99493.88
2023-01-11T02:56:21.528Z,99490.38
2023-01-11T02:58:51.925Z,99502.59
2023-01-11T03:01:22.870Z,99509.75
2023-01-11T03:03:50.726Z,99501.88
2023-01-11T03:06:28.597Z,99508.25
2023-01-11T03:09:16.833Z,99510.09
2023-01-11T03:12:43.697Z,99507.06
2023-01-11T03:15:30.151Z,99508.06
2023-01-11T03:18:19.143Z,99505.91
2023-01-11T03:21:12.318Z,99516.25
2023-01-11T03:24:17.451Z,99525.59
2023-01-11T03:26:53.691Z,99518.09
2023-01-11T03:29:41.503Z,99524.09
2023-01-11T03:32:41.011Z,99516.94
2023-01-11T03:35:11.400Z,99523.78
2023-01-11T03:37:46.367Z,99535.31
2023-01-11T03:40:31.954Z,99538.81
2023-01-11T03:43:14.073Z,99532.44
2023-01-11T03:46:06.083Z,99539.13
2023-01-11T03:48:40.043Z,99545.66
2023-01-11T03:51:12.543Z,99529.22
2023-01-11T03:53:43.784Z,99549.13
2023-01-11T03:56:14.297Z,99543.28
2023-01-11T03:58:41.520Z,99543.28
2023-01-11T04:01:09.099Z,99554.50
2023-01-11T04:03:36.256Z,99543.13
2023-01-11T04:06:04.213Z,99550.34
2023-01-11T04:08:32.061Z,99557.50
2023-01-11T04:10:59.835Z,99566.84
2023-01-11T04:13:26.947Z,99574.22
2023-01-11T04:15:54.556Z,99566.38
2023-01-11T04:18:22.139Z,99567.69
2023-01-11T04:20:49.743Z,99572.38
2023-01-11T04:23:17.029Z,99581.06
2023-01-11T04:25:44.469Z,99580.72
2023-01-11T04:28:12.144Z,99579.53
2023-01-11T04:30:39.627Z,99568.66
2023-01-11T04:33:06.826Z,99586.66
2023-01-11T04:35:34.254Z,99587.66
2023-01-11T04:38:01.370Z,99591.00
2023-01-11T04:40:28.958Z,99595.00
2023-01-11T04:42:56.294Z,99603.19
2023-01-11T04:45:23.939Z,99600.69
2023-01-11T04:47:56.698Z,99613.91
2023-01-11T04:50:24.976Z,99620.78
2023-01-11T04:52:52.846Z,99614.56
2023-01-11T04:55:20.819Z,99604.19
2023-01-11T04:57:48.026Z,99621.25
2023-01-11T05:00:16.314Z,99622.09
2023-01-11T05:02:43.651Z,99626.28
2023-01-11T05:05:12.233Z,99620.06
2023-01-11T05:07:42.209Z,99630.94
2023-01-11T05:10:11.503Z,99638.78
2023-01-11T05:12:39.393Z,99638.50
2023-01-11T05:15:07.842Z,99638.97
2023-01-11T05:17:35.057Z,99637.66
2023-01-11T05:20:05.146Z,99655.56
2023-01-11T05:22:32.424Z,99662.53
2023-01-11T05:24:59.827Z,99651.19
2023-01-11T05:27:26.973Z,99664.88
2023-01-11T05:29:54.341Z,99656.34
2023-01-11T05:32:21.429Z,99660.16
2023-01-11T05:34:48.785Z,99679.78
2023-01-11T05:37:15.933Z,99654.78
2023-01-11T05:39:43.377Z,99670.91
2023-01-11T05:42:10.488Z,99681.09
2023-01-11T05:44:58.145Z,99684.13
2023-01-11T05:47:25.317Z,99687.47
2023-01-11T05:49:53.065Z,99691.44
2023-01-11T05:52:21.163Z,99689.47
2023-01-11T05:54:48.639Z,99691.28
2023-01-11T05:57:15.767Z,99690.59
2023-01-11T05:59:43.374Z,99697.63
2023-01-11T06:02:11.020Z,99701.97
2023-01-11T06:04:38.688Z,99701.31
2023-01-11T06:07:06.957Z,99701.28
2023-01-11T06:09:34.404Z,99678.16
2023-01-11T06:12:02.173Z,99705.97
2023-01-11T06:14:29.566Z,99695.97
2023-01-11T06:16:57.075Z,99712.63
2023-01-11T06:19:24.805Z,99704.97
2023-01-11T06:21:52.134Z,99694.63
2023-01-11T06:24:19.847Z,99718.38
2023-01-11T06:26:46.969Z,99722.03
2023-01-11T06:29:14.931Z,99721.00
2023-01-11T06:31:42.037Z,99728.53
2023-01-11T06:34:09.506Z,99729.44
2023-01-11T06:36:38.637Z,99723.34
2023-01-11T06:39:06.420Z,99735.72
2023-01-11T06:41:33.875Z,99730.56
2023-01-11T06:44:01.392Z,99738.69
2023-01-11T06:46:29.253Z,99745.44
2023-01-11T06:48:56.850Z,99750.13
2023-01-11T06:51:41.922Z,99743.44
2023-01-11T06:54:11.017Z,99743.75
2023-01-11T06:56:38.120Z,99761.75
2023-01-11T06:59:05.618Z,99771.63
2023-01-11T07:01:33.975Z,99780.97
2023-01-11T07:04:01.706Z,99774.47
2023-01-11T07:06:32.196Z,99783.84
2023-01-11T07:08:59.726Z,99762.78
2023-01-11T07:11:31.774Z,99779.47
2023-01-11T07:14:00.450Z,99783.16
2023-01-11T07:16:48.182Z,99794.16
2023-01-11T07:19:22.927Z,99794.84
2023-01-11T07:21:54.749Z,99793.31
2023-01-11T07:24:34.563Z,99799.50
2023-01-11T07:27:03.648Z,99784.16
2023-01-11T07:29:37.563Z,99792.19
2023-01-11T07:32:12.774Z,99801.72
2023-01-11T07:34:41.813Z,99792.28
2023-01-11T07:37:28.439Z,99799.94
2023-01-11T07:39:59.449Z,99801.97
2023-01-11T07:42:45.788Z,99801.28
2023-01-11T07:45:13.372Z,99787.66
2023-01-11T07:47:41.857Z,99805.28
2023-01-11T07:50:09.985Z,99808.06
2023-01-11T07:52:37.084Z,99812.19
2023-01-11T07:55:04.832Z,99820.88
2023-01-11T07:57:33.479Z,99823.09
2023-01-11T08:00:00.871Z,99827.06
2023-01-11T08:02:31.124Z,99824.75
2023-01-11T08:05:03.147Z,99832.31
2023-01-11T08:07:33.592Z,99838.59
2023-01-11T08:10:01.166Z,99849.28
2023-01-11T08:12:50.652Z,99855.94
2023-01-11T08:15:22.879Z,99861.88
2023-01-11T08:17:57.062Z,99866.72
2023-01-11T08:20:30.421Z,99874.13
2023-01-11T08:23:08.246Z,99878.03
2023-01-11T08:25:37.765Z,99876.78
2023-01-11T08:28:07.381Z,99879.50
2023-01-11T08:30:37.755Z,99882.50
2023-01-11T08:33:05.620Z,99885.63
2023-01-11T08:35:38.287Z,99889.19
2023-01-11T08:38:05.699Z,99891.56
2023-01-11T08:40:33.397Z,99901.63
2023-01-11T08:43:01.049Z,99901.91
2023-01-11T08:45:29.263Z,99894.59
2023-01-11T08:47:59.534Z,99902.50
2023-01-11T08:50:28.777Z,99901.13
2023-01-11T08:53:05.768Z,99905.81
2023-01-11T08:55:46.138Z,99917.41
2023-01-11T08:58:21.549Z,99900.13
2023-01-11T09:00:49.289Z,99904.81
2023-01-11T09:03:18.964Z,99919.19
2023-01-11T09:06:05.738Z,99921.59
2023-01-11T09:08:43.928Z,99920.22
2023-01-11T09:11:54.870Z,99928.25
2023-01-11T09:14:48.912Z,99934.50
2023-01-11T09:17:19.548Z,99930.00
2023-01-11T09:19:46.749Z,99930.38
2023-01-11T09:22:14.430Z,99933.72
2023-01-11T09:24:41.554Z,99931.41
2023-01-11T09:27:10.065Z,99945.13
2023-01-11T09:29:38.074Z,99940.72
2023-01-11T09:34:58.334Z,99944.44
2023-01-11T09:37:30.903Z,99944.28
2023-01-11T09:46:19.783Z,99930.09
2023-01-11T09:48:58.295Z,99942.50
2023-01-11T09:51:39.962Z,99928.09
2023-01-11T09:54:18.826Z,99939.66
2023-01-11T09:57:01.003Z,99940.81
2023-01-11T10:00:02.594Z,99940.47
2023-01-11T10:02:47.806Z,99945.16
2023-01-11T10:05:35.807Z,99947.00
2023-01-11T10:18:29.330Z,99952.53
2023-01-11T10:18:30.324Z,99942.03
2023-01-11T10:20:38.042Z,99942.47
2023-01-11T10:23:09.540Z,99948.28
2023-01-11T10:25:50.925Z,99944.25
2023-01-11T10:29:13.525Z,99956.88
2023-01-11T10:32:05.205Z,99959.72
2023-01-11T10:35:08.852Z,99959.91
2023-01-11T10:37:48.803Z,99960.56
2023-01-11T10:40:46.277Z,99954.19
2023-01-11T10:43:28.688Z,99965.06
2023-01-11T10:46:34.213Z,99960.84
2023-01-11T10:49:36.403Z,99957.38
2023-01-11T10:52:18.446Z,99951.53
2023-01-11T10:54:51.377Z,99950.25
2023-01-11T10:57:59.483Z,99960.69
2023-01-11T11:00:36.765Z,99960.47
2023-01-11T11:03:13.815Z,99970.81
2023-01-11T11:06:05.391Z,99975.97
2023-01-11T11:09:15.741Z,99979.34
2023-01-11T11:12:20.540Z,99981.34
2023-01-11T11:15:26.515Z,99975.56
2023-01-11T11:18:03.406Z,99968.91
2023-01-11T11:20:39.448Z,99964.84
2023-01-11T11:23:21.392Z,99969.44
2023-01-11T11:25:57.123Z,99976.91
2023-01-11T11:28:34.462Z,99973.69
2023-01-11T11:31:36.725Z,99984.59
2023-01-11T11:34:14.980Z,99975.75
2023-01-11T11:36:46.045Z,99972.00
2023-01-11T11:39:31.273Z,99981.91
2023-01-11T11:42:15.420Z,99986.78
2023-01-11T11:44:48.095Z,99993.25
2023-01-11T11:47:46.078Z,99990.81
2023-01-11T11:50:41.951Z,99991.66
2023-01-11T11:53:07.113Z,99973.28
2023-01-11T11:55:35.624Z,99979.88
2023-01-11T11:58:10.981Z,99985.25
2023-01-11T12:03:43.342Z,99980.97
2023-01-11T12:06:15.367Z,99986.34
2023-01-11T12:08:43.325Z,99983.50
2023-01-11T12:11:20.541Z,99987.22
2023-01-11T12:14:03.923Z,99996.09
2023-01-11T12:16:36.231Z,99997.00
2023-01-11T12:19:03.495Z,100002.28
2023-01-11T12:21:39.479Z,100002.97
2023-01-11T12:27:28.123Z,99986.16
2023-01-11T12:30:36.905Z,100002.31
2023-01-11T12:33:47.711Z,100003.44
2023-01-11T12:36:43.740Z,99997.63
2023-01-11T12:40:15.913Z,99996.09
2023-01-11T12:43:23.475Z,99997.00
2023-01-11T12:46:22.775Z,99976.75
2023-01-11T12:49:19.812Z,100007.63
2023-01-11T12:52:02.471Z,100010.09
2023-01-11T12:54:51.611Z,100002.78
2023-01-11T12:57:41.854Z,100002.28
2023-01-11T13:00:33.988Z,100001.13
2023-01-11T13:03:21.642Z,100008.50
2023-01-11T13:06:31.695Z,100015.41
2023-01-11T13:09:27.771Z,100022.19
2023-01-11T13:12:07.295Z,100020.00
2023-01-11T13:14:52.946Z,100022.13
2023-01-11T13:17:23.801Z,100020.25
2023-01-11T13:20:09.744Z,100021.97
2023-01-11T13:22:42.270Z,100019.84
2023-01-11T13:25:19.279Z,100018.19
2023-01-11T13:27:56.062Z,100015.94
2023-01-11T13:30:30.740Z,100040.66
2023-01-11T13:37:29.695Z,100030.00
2023-01-11T13:40:22.830Z,100029.00
2023-01-11T13:43:19.947Z,100045.31
2023-01-11T13:46:03.397Z,100044.97
2023-01-11T13:49:18.440Z,100049.50
2023-01-11T13:52:23.861Z,100060.59
2023-01-11T13:55:14.376Z,100058.50
2023-01-11T13:58:13.119Z,100052.47
2023-01-11T14:01:02.726Z,100063.19
2023-01-11T14:05:02.412Z,100056.50
2023-01-11T14:08:01.145Z,100046.88
2023-01-11T14:10:34.615Z,100060.13
2023-01-11T14:13:45.920Z,100068.72
2023-01-11T14:16:45.646Z,100062.38
2023-01-11T14:19:51.243Z,100063.53
2023-01-11T14:26:18.101Z,100061.81
2023-01-11T14:30:15.132Z,100064.88
2023-01-11T14:33:07.725Z,100060.13
2023-01-11T14:35:43.561Z,100059.63
2023-01-11T14:38:42.332Z,100089.88
2023-01-11T14:41:58.625Z,100098.69
2023-01-11T14:44:53.153Z,100090.16
2023-01-11T14:47:23.208Z,100093.94
2023-01-11T14:50:24.677Z,100094.69
2023-01-11T14:52:58.947Z,100070.63
2023-01-11T14:55:29.493Z,100100.78
2023-01-11T14:57:56.579Z,100093.06
2023-01-11T15:00:31.335Z,100102.09
2023-01-11T15:03:01.666Z,100094.78
2023-01-11T15:05:34.146Z,100101.00
2023-01-11T15:08:13.554Z,100108.06
2023-01-11T15:11:05.514Z,100108.28
2023-01-11T15:13:57.647Z,100102.38
2023-01-11T15:16:50.527Z,100111.38
2023-01-11T15:19:23.950Z,100110.28
2023-01-11T15:21:55.773Z,100109.47
2023-01-11T15:24:29.804Z,100127.19
2023-01-11T15:27:01.702Z,100122.44
2023-01-11T15:29:45.462Z,100130.72
2023-01-11T15:32:27.711Z,100130.31
2023-01-11T15:35:23.477Z,100144.91
2023-01-11T15:38:03.798Z,100132.84
2023-01-11T15:40:35.465Z,100139.59
2023-01-11T15:43:21.278Z,100149.00
2023-01-11T15:46:22.287Z,100160.56
2023-01-11T15:49:11.614Z,100155.56
2023-01-11T15:52:09.940Z,100150.50
2023-01-11T15:55:14.654Z,100149.63
2023-01-11T15:58:03.695Z,100154.97
2023-01-11T16:00:43.729Z,100147.94
2023-01-11T16:03:38.891Z,100160.94
2023-01-11T16:06:25.112Z,100159.38
2023-01-11T16:09:31.464Z,100159.38
2023-01-11T16:12:21.353Z,100161.50
2023-01-11T16:15:06.785Z,100164.16
2023-01-11T16:17:34.326Z,100162.94
2023-01-11T16:20:22.857Z,100160.19
2023-01-11T16:23:06.325Z,100168.31
2023-01-11T16:25:38.987Z,100159.94
2023-01-11T16:28:13.837Z,100170.59
2023-01-11T16:30:41.318Z,100181.63
2023-01-11T16:33:21.855Z,100178.50
2023-01-11T16:35:49.208Z,100179.56
2023-01-11T16:38:22.533Z,100177.63
2023-01-11T16:40:53.253Z,100187.03
2023-01-11T16:43:28.611Z,100178.03
2023-01-11T16:45:56.365Z,100172.69
2023-01-11T16:48:25.469Z,100174.84
2023-01-11T16:51:08.640Z,100179.56
2023-01-11T16:53:39.213Z,100160.28
2023-01-11T16:56:16.352Z,100169.34
2023-01-11T16:58:44.139Z,100165.84
2023-01-11T17:01:14.072Z,100176.13
2023-01-11T17:03:54.782Z,100185.16
2023-01-11T17:06:26.986Z,100182.69
2023-01-11T17:09:00.083Z,100198.03
2023-01-11T17:11:37.323Z,100179.84
2023-01-11T17:14:23.231Z,100186.25
2023-01-11T17:17:12.247Z,100195.84
2023-01-11T17:19:46.902Z,100200.63
2023-01-11T17:22:16.933Z,100202.19
2023-01-11T17:24:54.087Z,100203.88
2023-01-11T17:27:25.766Z,100211.03
2023-01-11T17:29:55.714Z,100212.31
2023-01-11T17:32:29.906Z,100208.59
2023-01-11T17:34:57.422Z,100210.81
2023-01-11T17:37:24.675Z,100209.63
2023-01-11T17:39:55.588Z,100214.56
2023-01-11T17:43:02.142Z,100206.16
2023-01-11T17:45:30.007Z,100204.06
2023-01-11T17:48:08.450Z,100209.63
2023-01-11T17:50:49.484Z,100214.97
2023-01-11T17:53:22.711Z,100212.78
2023-01-11T17:55:50.797Z,100222.28
2023-01-11T17:58:26.464Z,100221.53
2023-01-11T18:01:10.616Z,100216.53
2023-01-11T18:03:44.040Z,100208.75
2023-01-11T18:06:40.727Z,100213.38
2023-01-11T18:09:23.214Z,100219.22
2023-01-11T18:11:54.084Z,100213.69
2023-01-11T18:14:25.480Z,100222.91
2023-01-11T18:17:03.529Z,100218.31
2023-01-11T18:19:35.092Z,100214.72
2023-01-11T18:22:05.514Z,100215.22
2023-01-11T18:24:43.334Z,100204.56
2023-01-11T18:27:18.652Z,100210.69
2023-01-11T18:29:47.923Z,100206.16
2023-01-11T18:32:15.691Z,100204.63
2023-01-11T18:34:46.091Z,100198.72
2023-01-11T18:37:13.956Z,100211.50
2023-01-11T18:39:42.732Z,100216.19
2023-01-11T18:42:16.696Z,100213.13
2023-01-11T18:44:46.778Z,100196.63
2023-01-11T18:47:18.582Z,100216.56
2023-01-11T18:49:46.580Z,100213.84
2023-01-11T18:52:14.386Z,100218.72
2023-01-11T18:54:42.811Z,100214.78
2023-01-11T18:57:12.932Z,100224.38
2023-01-11T18:59:40.107Z,100222.00
2023-01-11T19:02:17.579Z,100228.44
2023-01-11T19:04:45.900Z,100230.72
2023-01-11T19:07:17.298Z,100222.91
2023-01-11T19:09:47.133Z,100215.56
2023-01-11T19:12:15.593Z,100223.50
2023-01-11T19:14:43.323Z,100222.69
2023-01-11T19:17:11.959Z,100224.09
2023-01-11T19:19:40.947Z,100227.69
2023-01-11T19:22:10.125Z,100230.88
2023-01-11T19:24:37.902Z,100237.59
2023-01-11T19:27:05.715Z,100237.38
2023-01-11T19:29:32.883Z,100182.66
2023-01-11T19:32:00.426Z,100231.19
2023-01-11T19:34:27.574Z,100238.53
2023-01-11T19:36:55.089Z,100241.28
2023-01-11T19:39:22.191Z,100243.53
2023-01-11T19:41:57.869Z,100242.81
2023-01-11T19:44:33.483Z,100245.72
2023-01-11T19:47:11.300Z,100241.00
2023-01-11T19:49:40.146Z,100242.13
2023-01-11T19:52:14.514Z,100238.81
2023-01-11T19:54:42.953Z,100239.47
2023-01-11T19:57:19.094Z,100243.06
2023-01-11T19:59:49.949Z,100250.72
2023-01-11T20:02:19.884Z,100242.53
2023-01-11T20:04:47.550Z,100249.19
2023-01-11T20:07:15.810Z,100250.19
2023-01-11T20:09:43.519Z,100249.13
2023-01-11T20:12:13.133Z,100245.22
2023-01-11T20:14:41.546Z,100243.75
2023-01-11T20:17:08.972Z,100248.34
2023-01-11T20:19:36.390Z,100249.03
2023-01-11T20:22:03.853Z,100253.06
2023-01-11T20:24:31.492Z,100244.50
2023-01-11T20:27:03.066Z,100249.03
2023-01-11T20:29:30.573Z,100233.56
2023-01-11T20:32:10.536Z,100224.38
2023-01-11T20:34:45.727Z,100239.16
2023-01-11T20:37:15.143Z,100250.72
2023-01-11T20:39:42.394Z,100240.41
2023-01-11T20:42:12.526Z,100240.25
2023-01-11T20:44:40.209Z,100243.59
2023-01-11T20:47:07.703Z,100247.59
2023-01-11T20:49:35.084Z,100248.88
2023-01-11T20:52:02.722Z,100243.44
2023-01-11T20:54:31.411Z,100249.44
2023-01-11T20:57:02.296Z,100246.13
2023-01-11T20:59:32.292Z,100247.38
2023-01-11T21:01:59.894Z,100239.22
2023-01-11T21:04:27.496Z,100237.66
2023-01-11T21:06:55.395Z,100249.59
2023-01-11T21:09:25.712Z,100249.19
2023-01-11T21:11:54.314Z,100246.97
2023-01-11T21:14:24.822Z,100248.78
2023-01-11T21:16:55.203Z,100233.06
2023-01-11T21:19:23.311Z,100240.47
2023-01-11T21:21:50.884Z,100228.75
2023-01-11T21:24:18.394Z,100236.63
2023-01-11T21:26:48.182Z,100251.78
2023-01-11T21:29:15.294Z,100244.06
2023-01-11T21:31:42.866Z,100251.56
2023-01-11T21:34:12.065Z,100257.06
2023-01-11T21:36:40.332Z,100253.38
2023-01-11T21:39:26.895Z,100252.06
2023-01-11T21:42:01.294Z,100259.41
2023-01-11T21:44:31.994Z,100259.16
2023-01-11T21:47:10.294Z,100261.44
2023-01-11T21:49:43.769Z,100252.34
2023-01-11T21:52:12.991Z,100255.69
2023-01-11T21:55:30.787Z,100262.41
2023-01-11T21:57:59.924Z,100246.25
2023-01-11T22:00:34.701Z,100252.28
2023-01-11T22:03:03.319Z,100258.75
2023-01-11T22:05:39.434Z,100256.19
2023-01-11T22:08:07.276Z,100255.50
2023-01-11T22:10:34.610Z,100254.41
2023-01-11T22:13:02.192Z,100243.25
2023-01-11T22:15:29.388Z,100258.53
2023-01-11T22:17:56.816Z,100261.44
2023-01-11T22:20:24.458Z,100263.28
2023-01-11T22:22:52.093Z,100263.72
2023-01-11T22:25:20.305Z,100257.94
2023-01-11T22:27:47.769Z,100253.91
2023-01-11T22:30:15.032Z,100265.00
2023-01-11T22:32:43.449Z,100259.16
2023-01-11T22:35:11.270Z,100260.94
2023-01-11T22:37:39.230Z,100252.53
2023-01-11T22:40:09.944Z,100252.22
2023-01-11T22:42:37.489Z,100240.75
2023-01-11T22:45:08.179Z,100258.44
2023-01-11T22:47:35.998Z,100257.00
2023-01-11T22:50:03.404Z,100251.63
2023-01-11T22:52:32.577Z,100242.31
2023-01-11T22:55:01.072Z,100243.41
2023-01-11T22:57:32.233Z,100238.75
2023-01-11T22:59:59.484Z,100229.66
2023-01-11T23:02:27.233Z,100232.69
2023-01-11T23:04:54.453Z,100237.69
2023-01-11T23:07:22.793Z,100240.09
2023-01-11T23:09:49.945Z,100244.31
2023-01-11T23:12:35.930Z,100237.28
2023-01-11T23:15:05.405Z,100245.16
2023-01-11T23:17:32.897Z,100236.81
2023-01-11T23:20:00.017Z,100226.34
2023-01-11T23:22:28.302Z,100208.03
2023-01-11T23:24:55.632Z,100230.53
2023-01-11T23:27:23.055Z,100220.44
2023-01-11T23:29:50.103Z,100222.44
2023-01-11T23:32:17.544Z,100224.00
2023-01-11T23:34:44.795Z,100223.88
2023-01-11T23:37:12.531Z,100235.28
2023-01-11T23:39:39.735Z,100236.31
2023-01-11T23:42:25.609Z,100228.22
2023-01-11T23:44:54.513Z,100238.59
2023-01-11T23:47:29.586Z,100232.31
2023-01-11T23:50:00.414Z,100232.47
2023-01-11T23:52:32.540Z,100235.69
2023-01-11T23:55:05.484Z,100239.09
2023-01-11T23:57:35.371Z,100233.63
